sensor_id;sensor_type;location;lat;lon;timestamp;P1;durP1;ratioP1;P2;durP2;ratioP2
17330;SDS011;8783;52.448;4.638;2022-07-04T00:00:14;4.30;;;1.00;;
17330;SDS011;8783;52.448;4.638;2022-07-04T00:02:41;3.88;;;1.00;;
17330;SDS011;8783;52.448;4.638;2022-07-04T00:05:07;2.35;;;0.70;;
17330;SDS011;8783;52.448;4.638;2022-07-04T00:07:48;3.88;;;0.80;;
17330;SDS011;8783;52.448;4.638;2022-07-04T00:10:16;4.05;;;0.90;;
17330;SDS011;8783;52.448;4.638;2022-07-04T00:12:43;5.00;;;0.95;;
17330;SDS011;8783;52.448;4.638;2022-07-04T00:15:10;4.15;;;1.05;;
17330;SDS011;8783;52.448;4.638;2022-07-04T00:17:36;4.13;;;1.10;;
17330;SDS011;8783;52.448;4.638;2022-07-04T00:20:03;3.33;;;0.90;;
17330;SDS011;8783;52.448;4.638;2022-07-04T00:22:29;2.95;;;0.85;;
17330;SDS011;8783;52.448;4.638;2022-07-04T00:24:55;4.03;;;0.80;;
17330;SDS011;8783;52.448;4.638;2022-07-04T00:27:21;4.40;;;1.00;;
17330;SDS011;8783;52.448;4.638;2022-07-04T00:29:46;3.83;;;0.95;;
17330;SDS011;8783;52.448;4.638;2022-07-04T00:32:12;3.72;;;0.90;;
17330;SDS011;8783;52.448;4.638;2022-07-04T00:34:38;6.90;;;1.08;;
17330;SDS011;8783;52.448;4.638;2022-07-04T00:37:04;4.00;;;1.13;;
17330;SDS011;8783;52.448;4.638;2022-07-04T00:39:29;5.43;;;1.42;;
17330;SDS011;8783;52.448;4.638;2022-07-04T00:41:55;3.90;;;0.90;;
17330;SDS011;8783;52.448;4.638;2022-07-04T00:44:21;3.53;;;0.90;;
17330;SDS011;8783;52.448;4.638;2022-07-04T00:46:47;6.72;;;1.13;;
17330;SDS011;8783;52.448;4.638;2022-07-04T00:49:14;5.30;;;1.15;;
17330;SDS011;8783;52.448;4.638;2022-07-04T00:51:41;5.10;;;1.15;;
17330;SDS011;8783;52.448;4.638;2022-07-04T00:54:08;2.95;;;1.00;;
17330;SDS011;8783;52.448;4.638;2022-07-04T00:56:36;3.05;;;0.93;;
17330;SDS011;8783;52.448;4.638;2022-07-04T00:59:03;7.47;;;0.93;;
17330;SDS011;8783;52.448;4.638;2022-07-04T01:01:29;4.22;;;1.10;;
17330;SDS011;8783;52.448;4.638;2022-07-04T01:03:58;4.93;;;1.10;;
17330;SDS011;8783;52.448;4.638;2022-07-04T01:06:27;3.15;;;0.80;;
17330;SDS011;8783;52.448;4.638;2022-07-04T01:08:52;4.47;;;0.93;;
17330;SDS011;8783;52.448;4.638;2022-07-04T01:11:18;4.75;;;1.05;;
17330;SDS011;8783;52.448;4.638;2022-07-04T01:13:44;4.03;;;1.00;;
17330;SDS011;8783;52.448;4.638;2022-07-04T01:16:10;2.28;;;0.90;;
17330;SDS011;8783;52.448;4.638;2022-07-04T01:18:36;2.70;;;0.90;;
17330;SDS011;8783;52.448;4.638;2022-07-04T01:21:03;3.17;;;0.90;;
17330;SDS011;8783;52.448;4.638;2022-07-04T01:23:29;2.97;;;1.00;;
17330;SDS011;8783;52.448;4.638;2022-07-04T01:26:04;3.92;;;0.80;;
17330;SDS011;8783;52.448;4.638;2022-07-04T01:28:30;2.55;;;0.77;;
17330;SDS011;8783;52.448;4.638;2022-07-04T01:30:55;3.05;;;1.00;;
17330;SDS011;8783;52.448;4.638;2022-07-04T01:33:24;5.07;;;1.23;;
17330;SDS011;8783;52.448;4.638;2022-07-04T01:35:49;2.13;;;0.70;;
17330;SDS011;8783;52.448;4.638;2022-07-04T01:38:18;3.72;;;1.00;;
17330;SDS011;8783;52.448;4.638;2022-07-04T01:40:44;5.55;;;0.88;;
17330;SDS011;8783;52.448;4.638;2022-07-04T01:43:10;2.13;;;0.80;;
17330;SDS011;8783;52.448;4.638;2022-07-04T01:45:36;5.43;;;1.05;;
17330;SDS011;8783;52.448;4.638;2022-07-04T01:48:07;2.65;;;0.90;;
17330;SDS011;8783;52.448;4.638;2022-07-04T01:50:34;3.75;;;0.93;;
17330;SDS011;8783;52.448;4.638;2022-07-04T01:53:03;4.55;;;1.02;;
17330;SDS011;8783;52.448;4.638;2022-07-04T01:55:29;3.17;;;1.02;;
17330;SDS011;8783;52.448;4.638;2022-07-04T01:57:56;4.13;;;1.10;;
17330;SDS011;8783;52.448;4.638;2022-07-04T02:00:21;6.15;;;1.10;;
17330;SDS011;8783;52.448;4.638;2022-07-04T02:03:06;3.00;;;0.90;;
17330;SDS011;8783;52.448;4.638;2022-07-04T02:05:32;5.28;;;1.00;;
17330;SDS011;8783;52.448;4.638;2022-07-04T02:08:01;4.57;;;1.10;;
17330;SDS011;8783;52.448;4.638;2022-07-04T02:10:27;3.88;;;0.80;;
17330;SDS011;8783;52.448;4.638;2022-07-04T02:12:55;4.13;;;0.93;;
17330;SDS011;8783;52.448;4.638;2022-07-04T02:15:31;3.30;;;1.00;;
17330;SDS011;8783;52.448;4.638;2022-07-04T02:17:58;3.42;;;1.00;;
17330;SDS011;8783;52.448;4.638;2022-07-04T02:20:24;2.60;;;0.90;;
17330;SDS011;8783;52.448;4.638;2022-07-04T02:22:50;4.45;;;0.90;;
17330;SDS011;8783;52.448;4.638;2022-07-04T02:25:19;3.13;;;0.80;;
17330;SDS011;8783;52.448;4.638;2022-07-04T02:27:45;5.22;;;0.90;;
17330;SDS011;8783;52.448;4.638;2022-07-04T02:30:11;3.60;;;0.80;;
17330;SDS011;8783;52.448;4.638;2022-07-04T02:32:37;4.63;;;1.13;;
17330;SDS011;8783;52.448;4.638;2022-07-04T02:35:04;3.88;;;1.05;;
17330;SDS011;8783;52.448;4.638;2022-07-04T02:37:30;4.97;;;1.23;;
17330;SDS011;8783;52.448;4.638;2022-07-04T02:39:56;6.20;;;1.30;;
17330;SDS011;8783;52.448;4.638;2022-07-04T02:42:22;2.78;;;1.08;;
17330;SDS011;8783;52.448;4.638;2022-07-04T02:44:47;6.53;;;1.10;;
17330;SDS011;8783;52.448;4.638;2022-07-04T02:47:13;4.63;;;1.23;;
17330;SDS011;8783;52.448;4.638;2022-07-04T02:49:40;3.20;;;0.82;;
17330;SDS011;8783;52.448;4.638;2022-07-04T02:52:06;5.18;;;1.13;;
17330;SDS011;8783;52.448;4.638;2022-07-04T02:54:32;4.60;;;1.00;;
17330;SDS011;8783;52.448;4.638;2022-07-04T02:56:57;4.45;;;1.08;;
17330;SDS011;8783;52.448;4.638;2022-07-04T02:59:23;1.83;;;0.90;;
17330;SDS011;8783;52.448;4.638;2022-07-04T03:01:51;4.78;;;0.93;;
17330;SDS011;8783;52.448;4.638;2022-07-04T03:04:17;6.60;;;1.27;;
17330;SDS011;8783;52.448;4.638;2022-07-04T03:06:46;4.22;;;1.02;;
17330;SDS011;8783;52.448;4.638;2022-07-04T03:09:11;5.30;;;1.00;;
17330;SDS011;8783;52.448;4.638;2022-07-04T03:11:37;5.13;;;1.33;;
17330;SDS011;8783;52.448;4.638;2022-07-04T03:14:03;4.90;;;1.05;;
17330;SDS011;8783;52.448;4.638;2022-07-04T03:16:28;2.63;;;1.00;;
17330;SDS011;8783;52.448;4.638;2022-07-04T03:19:00;4.28;;;0.90;;
17330;SDS011;8783;52.448;4.638;2022-07-04T03:21:25;3.85;;;1.02;;
17330;SDS011;8783;52.448;4.638;2022-07-04T03:23:51;3.17;;;1.00;;
17330;SDS011;8783;52.448;4.638;2022-07-04T03:26:25;3.75;;;1.17;;
17330;SDS011;8783;52.448;4.638;2022-07-04T03:28:57;4.03;;;0.90;;
17330;SDS011;8783;52.448;4.638;2022-07-04T03:31:23;4.82;;;0.90;;
17330;SDS011;8783;52.448;4.638;2022-07-04T03:33:50;4.47;;;0.80;;
17330;SDS011;8783;52.448;4.638;2022-07-04T03:36:16;1.90;;;0.68;;
17330;SDS011;8783;52.448;4.638;2022-07-04T03:38:42;2.88;;;0.95;;
17330;SDS011;8783;52.448;4.638;2022-07-04T03:41:08;4.47;;;0.85;;
17330;SDS011;8783;52.448;4.638;2022-07-04T03:43:34;4.47;;;1.00;;
17330;SDS011;8783;52.448;4.638;2022-07-04T03:46:00;4.75;;;1.08;;
17330;SDS011;8783;52.448;4.638;2022-07-04T03:48:26;4.22;;;0.90;;
17330;SDS011;8783;52.448;4.638;2022-07-04T03:50:54;2.67;;;0.77;;
17330;SDS011;8783;52.448;4.638;2022-07-04T03:53:20;5.20;;;1.10;;
17330;SDS011;8783;52.448;4.638;2022-07-04T03:55:46;3.33;;;0.82;;
17330;SDS011;8783;52.448;4.638;2022-07-04T03:58:12;6.70;;;1.15;;
17330;SDS011;8783;52.448;4.638;2022-07-04T04:00:38;3.92;;;1.27;;
17330;SDS011;8783;52.448;4.638;2022-07-04T04:03:03;4.90;;;1.15;;
17330;SDS011;8783;52.448;4.638;2022-07-04T04:05:49;5.30;;;1.25;;
17330;SDS011;8783;52.448;4.638;2022-07-04T04:08:15;5.75;;;1.45;;
17330;SDS011;8783;52.448;4.638;2022-07-04T04:10:40;5.25;;;1.42;;
17330;SDS011;8783;52.448;4.638;2022-07-04T04:13:08;5.85;;;1.42;;
17330;SDS011;8783;52.448;4.638;2022-07-04T04:15:34;7.93;;;1.60;;
17330;SDS011;8783;52.448;4.638;2022-07-04T04:18:00;6.95;;;1.40;;
17330;SDS011;8783;52.448;4.638;2022-07-04T04:20:26;6.32;;;1.70;;
17330;SDS011;8783;52.448;4.638;2022-07-04T04:22:51;6.82;;;1.58;;
17330;SDS011;8783;52.448;4.638;2022-07-04T04:25:17;5.07;;;1.23;;
17330;SDS011;8783;52.448;4.638;2022-07-04T04:27:43;6.03;;;1.70;;
17330;SDS011;8783;52.448;4.638;2022-07-04T04:30:09;5.20;;;1.45;;
17330;SDS011;8783;52.448;4.638;2022-07-04T04:32:35;7.85;;;1.60;;
17330;SDS011;8783;52.448;4.638;2022-07-04T04:35:01;7.82;;;1.35;;
17330;SDS011;8783;52.448;4.638;2022-07-04T04:37:26;4.80;;;1.23;;
17330;SDS011;8783;52.448;4.638;2022-07-04T04:39:52;4.95;;;1.40;;
17330;SDS011;8783;52.448;4.638;2022-07-04T04:42:18;6.30;;;1.77;;
17330;SDS011;8783;52.448;4.638;2022-07-04T04:44:43;8.20;;;1.23;;
17330;SDS011;8783;52.448;4.638;2022-07-04T04:47:09;2.80;;;1.05;;
17330;SDS011;8783;52.448;4.638;2022-07-04T04:49:35;6.65;;;1.30;;
17330;SDS011;8783;52.448;4.638;2022-07-04T04:52:00;4.90;;;1.33;;
17330;SDS011;8783;52.448;4.638;2022-07-04T04:54:26;7.03;;;1.40;;
17330;SDS011;8783;52.448;4.638;2022-07-04T04:56:52;5.68;;;1.35;;
17330;SDS011;8783;52.448;4.638;2022-07-04T04:59:17;7.13;;;1.55;;
17330;SDS011;8783;52.448;4.638;2022-07-04T05:01:43;4.47;;;1.30;;
17330;SDS011;8783;52.448;4.638;2022-07-04T05:04:08;5.57;;;1.35;;
17330;SDS011;8783;52.448;4.638;2022-07-04T05:06:34;4.38;;;1.10;;
17330;SDS011;8783;52.448;4.638;2022-07-04T05:09:00;4.47;;;1.27;;
17330;SDS011;8783;52.448;4.638;2022-07-04T05:11:26;5.10;;;1.40;;
17330;SDS011;8783;52.448;4.638;2022-07-04T05:13:51;6.07;;;1.40;;
17330;SDS011;8783;52.448;4.638;2022-07-04T05:16:17;4.20;;;1.30;;
17330;SDS011;8783;52.448;4.638;2022-07-04T05:18:42;4.10;;;1.17;;
17330;SDS011;8783;52.448;4.638;2022-07-04T05:21:08;4.22;;;1.35;;
17330;SDS011;8783;52.448;4.638;2022-07-04T05:23:34;7.18;;;1.30;;
17330;SDS011;8783;52.448;4.638;2022-07-04T05:25:59;5.22;;;1.15;;
17330;SDS011;8783;52.448;4.638;2022-07-04T05:28:25;4.28;;;1.10;;
17330;SDS011;8783;52.448;4.638;2022-07-04T05:30:50;1.65;;;0.80;;
17330;SDS011;8783;52.448;4.638;2022-07-04T05:33:16;3.92;;;1.10;;
17330;SDS011;8783;52.448;4.638;2022-07-04T05:35:42;2.33;;;1.00;;
17330;SDS011;8783;52.448;4.638;2022-07-04T05:38:08;3.47;;;1.17;;
17330;SDS011;8783;52.448;4.638;2022-07-04T05:40:34;3.05;;;1.00;;
17330;SDS011;8783;52.448;4.638;2022-07-04T05:42:59;4.05;;;1.15;;
17330;SDS011;8783;52.448;4.638;2022-07-04T05:45:25;3.78;;;1.30;;
17330;SDS011;8783;52.448;4.638;2022-07-04T05:47:51;4.75;;;1.23;;
17330;SDS011;8783;52.448;4.638;2022-07-04T05:50:16;3.42;;;1.08;;
17330;SDS011;8783;52.448;4.638;2022-07-04T05:52:42;1.92;;;1.05;;
17330;SDS011;8783;52.448;4.638;2022-07-04T05:55:08;4.53;;;1.17;;
17330;SDS011;8783;52.448;4.638;2022-07-04T05:57:34;5.65;;;1.05;;
17330;SDS011;8783;52.448;4.638;2022-07-04T06:00:00;2.75;;;0.90;;
17330;SDS011;8783;52.448;4.638;2022-07-04T06:02:26;3.83;;;1.30;;
17330;SDS011;8783;52.448;4.638;2022-07-04T06:04:51;5.03;;;1.20;;
17330;SDS011;8783;52.448;4.638;2022-07-04T06:07:17;4.72;;;1.30;;
17330;SDS011;8783;52.448;4.638;2022-07-04T06:09:43;5.55;;;1.20;;
17330;SDS011;8783;52.448;4.638;2022-07-04T06:12:09;4.03;;;1.30;;
17330;SDS011;8783;52.448;4.638;2022-07-04T06:14:35;4.18;;;1.15;;
17330;SDS011;8783;52.448;4.638;2022-07-04T06:17:00;5.05;;;1.17;;
17330;SDS011;8783;52.448;4.638;2022-07-04T06:19:26;6.47;;;1.00;;
17330;SDS011;8783;52.448;4.638;2022-07-04T06:21:52;4.97;;;1.13;;
17330;SDS011;8783;52.448;4.638;2022-07-04T06:24:18;5.03;;;1.00;;
17330;SDS011;8783;52.448;4.638;2022-07-04T06:26:44;6.43;;;1.15;;
17330;SDS011;8783;52.448;4.638;2022-07-04T06:29:09;3.67;;;1.10;;
17330;SDS011;8783;52.448;4.638;2022-07-04T06:31:35;3.20;;;1.10;;
17330;SDS011;8783;52.448;4.638;2022-07-04T06:34:01;2.17;;;0.90;;
17330;SDS011;8783;52.448;4.638;2022-07-04T06:36:45;3.90;;;1.00;;
17330;SDS011;8783;52.448;4.638;2022-07-04T06:39:11;2.80;;;1.08;;
17330;SDS011;8783;52.448;4.638;2022-07-04T06:41:39;4.78;;;1.15;;
17330;SDS011;8783;52.448;4.638;2022-07-04T06:44:08;4.55;;;0.98;;
17330;SDS011;8783;52.448;4.638;2022-07-04T06:46:33;6.13;;;1.25;;
17330;SDS011;8783;52.448;4.638;2022-07-04T06:48:59;4.07;;;1.10;;
17330;SDS011;8783;52.448;4.638;2022-07-04T06:51:24;2.35;;;1.08;;
17330;SDS011;8783;52.448;4.638;2022-07-04T06:53:50;4.35;;;1.30;;
17330;SDS011;8783;52.448;4.638;2022-07-04T06:56:16;2.42;;;0.98;;
17330;SDS011;8783;52.448;4.638;2022-07-04T06:58:43;3.10;;;0.93;;
17330;SDS011;8783;52.448;4.638;2022-07-04T07:01:08;2.78;;;1.05;;
17330;SDS011;8783;52.448;4.638;2022-07-04T07:03:39;4.10;;;1.20;;
17330;SDS011;8783;52.448;4.638;2022-07-04T07:06:04;2.55;;;0.80;;
17330;SDS011;8783;52.448;4.638;2022-07-04T07:08:33;3.95;;;1.08;;
17330;SDS011;8783;52.448;4.638;2022-07-04T07:10:59;31.02;;;6.47;;
17330;SDS011;8783;52.448;4.638;2022-07-04T07:13:38;37.80;;;7.05;;
17330;SDS011;8783;52.448;4.638;2022-07-04T07:16:08;36.15;;;7.20;;
17330;SDS011;8783;52.448;4.638;2022-07-04T07:18:34;26.73;;;5.32;;
17330;SDS011;8783;52.448;4.638;2022-07-04T07:21:00;19.50;;;4.82;;
17330;SDS011;8783;52.448;4.638;2022-07-04T07:23:26;13.93;;;3.22;;
17330;SDS011;8783;52.448;4.638;2022-07-04T07:25:51;9.90;;;2.05;;
17330;SDS011;8783;52.448;4.638;2022-07-04T07:28:17;8.05;;;2.03;;
17330;SDS011;8783;52.448;4.638;2022-07-04T07:30:43;6.47;;;1.70;;
17330;SDS011;8783;52.448;4.638;2022-07-04T07:33:09;8.68;;;1.67;;
17330;SDS011;8783;52.448;4.638;2022-07-04T07:35:36;5.18;;;1.52;;
17330;SDS011;8783;52.448;4.638;2022-07-04T07:38:02;5.57;;;1.45;;
17330;SDS011;8783;52.448;4.638;2022-07-04T07:40:30;5.60;;;1.50;;
17330;SDS011;8783;52.448;4.638;2022-07-04T07:42:56;2.92;;;0.90;;
17330;SDS011;8783;52.448;4.638;2022-07-04T07:45:22;3.58;;;1.20;;
17330;SDS011;8783;52.448;4.638;2022-07-04T07:47:48;3.17;;;0.90;;
17330;SDS011;8783;52.448;4.638;2022-07-04T07:50:14;2.55;;;0.90;;
17330;SDS011;8783;52.448;4.638;2022-07-04T07:52:39;4.78;;;0.98;;
17330;SDS011;8783;52.448;4.638;2022-07-04T07:55:05;2.95;;;0.95;;
17330;SDS011;8783;52.448;4.638;2022-07-04T07:57:32;2.63;;;0.90;;
17330;SDS011;8783;52.448;4.638;2022-07-04T07:59:57;5.03;;;1.10;;
17330;SDS011;8783;52.448;4.638;2022-07-04T08:02:23;4.57;;;1.25;;
17330;SDS011;8783;52.448;4.638;2022-07-04T08:05:09;3.08;;;1.05;;
17330;SDS011;8783;52.448;4.638;2022-07-04T08:07:36;4.05;;;0.95;;
17330;SDS011;8783;52.448;4.638;2022-07-04T08:10:04;4.18;;;1.00;;
17330;SDS011;8783;52.448;4.638;2022-07-04T08:12:30;5.07;;;1.13;;
17330;SDS011;8783;52.448;4.638;2022-07-04T08:14:56;4.97;;;0.98;;
17330;SDS011;8783;52.448;4.638;2022-07-04T08:17:21;2.80;;;1.00;;
17330;SDS011;8783;52.448;4.638;2022-07-04T08:19:47;4.45;;;1.30;;
17330;SDS011;8783;52.448;4.638;2022-07-04T08:22:13;4.53;;;1.20;;
17330;SDS011;8783;52.448;4.638;2022-07-04T08:24:39;4.50;;;1.20;;
17330;SDS011;8783;52.448;4.638;2022-07-04T08:27:04;4.70;;;1.00;;
17330;SDS011;8783;52.448;4.638;2022-07-04T08:29:30;2.80;;;1.00;;
17330;SDS011;8783;52.448;4.638;2022-07-04T08:31:57;2.95;;;0.80;;
17330;SDS011;8783;52.448;4.638;2022-07-04T08:34:23;5.07;;;1.00;;
17330;SDS011;8783;52.448;4.638;2022-07-04T08:36:49;6.90;;;1.20;;
17330;SDS011;8783;52.448;4.638;2022-07-04T08:39:14;4.15;;;1.10;;
17330;SDS011;8783;52.448;4.638;2022-07-04T08:41:41;6.15;;;1.17;;
17330;SDS011;8783;52.448;4.638;2022-07-04T08:44:08;3.20;;;0.82;;
17330;SDS011;8783;52.448;4.638;2022-07-04T08:46:37;3.97;;;1.10;;
17330;SDS011;8783;52.448;4.638;2022-07-04T08:49:07;4.32;;;1.10;;
17330;SDS011;8783;52.448;4.638;2022-07-04T08:51:44;3.55;;;1.30;;
17330;SDS011;8783;52.448;4.638;2022-07-04T08:54:24;3.97;;;1.20;;
17330;SDS011;8783;52.448;4.638;2022-07-04T08:57:09;2.75;;;1.05;;
17330;SDS011;8783;52.448;4.638;2022-07-04T09:00:11;4.28;;;1.27;;
17330;SDS011;8783;52.448;4.638;2022-07-04T09:02:37;4.80;;;1.38;;
17330;SDS011;8783;52.448;4.638;2022-07-04T09:05:03;5.38;;;1.15;;
17330;SDS011;8783;52.448;4.638;2022-07-04T09:07:31;3.38;;;0.88;;
17330;SDS011;8783;52.448;4.638;2022-07-04T09:09:57;3.53;;;0.82;;
17330;SDS011;8783;52.448;4.638;2022-07-04T09:12:23;6.15;;;1.30;;
17330;SDS011;8783;52.448;4.638;2022-07-04T09:14:49;5.57;;;1.20;;
17330;SDS011;8783;52.448;4.638;2022-07-04T09:17:17;5.90;;;1.30;;
17330;SDS011;8783;52.448;4.638;2022-07-04T09:19:42;5.28;;;1.27;;
17330;SDS011;8783;52.448;4.638;2022-07-04T09:22:09;4.38;;;0.98;;
17330;SDS011;8783;52.448;4.638;2022-07-04T09:24:49;5.78;;;1.35;;
17330;SDS011;8783;52.448;4.638;2022-07-04T09:27:29;6.05;;;1.42;;
17330;SDS011;8783;52.448;4.638;2022-07-04T09:29:56;10.25;;;1.60;;
17330;SDS011;8783;52.448;4.638;2022-07-04T09:32:40;9.75;;;1.20;;
17330;SDS011;8783;52.448;4.638;2022-07-04T09:35:17;7.95;;;1.30;;
17330;SDS011;8783;52.448;4.638;2022-07-04T09:37:50;5.72;;;1.10;;
17330;SDS011;8783;52.448;4.638;2022-07-04T09:42:56;3.20;;;1.10;;
17330;SDS011;8783;52.448;4.638;2022-07-04T09:45:24;4.60;;;1.00;;
17330;SDS011;8783;52.448;4.638;2022-07-04T09:47:54;2.75;;;0.98;;
17330;SDS011;8783;52.448;4.638;2022-07-04T09:50:24;3.72;;;1.00;;
17330;SDS011;8783;52.448;4.638;2022-07-04T09:53:00;4.22;;;1.15;;
17330;SDS011;8783;52.448;4.638;2022-07-04T09:55:32;9.68;;;1.30;;
17330;SDS011;8783;52.448;4.638;2022-07-04T09:58:06;3.30;;;1.20;;
17330;SDS011;8783;52.448;4.638;2022-07-04T10:00:36;4.80;;;0.95;;
17330;SDS011;8783;52.448;4.638;2022-07-04T10:03:20;4.57;;;1.05;;
17330;SDS011;8783;52.448;4.638;2022-07-04T10:06:04;4.20;;;1.38;;
17330;SDS011;8783;52.448;4.638;2022-07-04T10:08:30;16.42;;;3.83;;
17330;SDS011;8783;52.448;4.638;2022-07-04T10:10:57;8.27;;;1.88;;
17330;SDS011;8783;52.448;4.638;2022-07-04T10:13:23;4.88;;;1.60;;
17330;SDS011;8783;52.448;4.638;2022-07-04T10:15:49;2.63;;;1.00;;
17330;SDS011;8783;52.448;4.638;2022-07-04T10:18:17;4.03;;;1.10;;
17330;SDS011;8783;52.448;4.638;2022-07-04T10:20:47;5.82;;;1.30;;
17330;SDS011;8783;52.448;4.638;2022-07-04T10:23:17;7.38;;;1.40;;
17330;SDS011;8783;52.448;4.638;2022-07-04T10:25:49;3.67;;;0.90;;
17330;SDS011;8783;52.448;4.638;2022-07-04T10:28:16;6.07;;;1.23;;
17330;SDS011;8783;52.448;4.638;2022-07-04T10:30:45;2.95;;;0.90;;
17330;SDS011;8783;52.448;4.638;2022-07-04T10:33:16;5.97;;;1.10;;
17330;SDS011;8783;52.448;4.638;2022-07-04T10:35:48;5.55;;;1.40;;
17330;SDS011;8783;52.448;4.638;2022-07-04T10:38:21;3.97;;;1.00;;
17330;SDS011;8783;52.448;4.638;2022-07-04T10:40:49;4.50;;;0.90;;
17330;SDS011;8783;52.448;4.638;2022-07-04T10:54:16;3.80;;;1.00;;
17330;SDS011;8783;52.448;4.638;2022-07-04T10:56:45;2.22;;;0.73;;
17330;SDS011;8783;52.448;4.638;2022-07-04T10:59:17;3.00;;;1.00;;
17330;SDS011;8783;52.448;4.638;2022-07-04T11:01:51;4.82;;;0.90;;
17330;SDS011;8783;52.448;4.638;2022-07-04T11:20:28;4.80;;;0.80;;
17330;SDS011;8783;52.448;4.638;2022-07-04T11:23:08;2.53;;;0.80;;
17330;SDS011;8783;52.448;4.638;2022-07-04T11:25:36;4.88;;;1.13;;
17330;SDS011;8783;52.448;4.638;2022-07-04T11:28:22;4.63;;;0.90;;
17330;SDS011;8783;52.448;4.638;2022-07-04T11:30:52;5.45;;;0.90;;
17330;SDS011;8783;52.448;4.638;2022-07-04T11:33:19;1.88;;;0.70;;
17330;SDS011;8783;52.448;4.638;2022-07-04T11:36:07;3.60;;;0.93;;
17330;SDS011;8783;52.448;4.638;2022-07-04T11:41:11;2.90;;;0.73;;
17330;SDS011;8783;52.448;4.638;2022-07-04T11:43:56;3.83;;;0.90;;
17330;SDS011;8783;52.448;4.638;2022-07-04T11:46:40;1.20;;;0.60;;
17330;SDS011;8783;52.448;4.638;2022-07-04T11:49:09;2.00;;;0.60;;
17330;SDS011;8783;52.448;4.638;2022-07-04T11:51:41;2.58;;;0.90;;
17330;SDS011;8783;52.448;4.638;2022-07-04T11:54:08;5.82;;;1.10;;
17330;SDS011;8783;52.448;4.638;2022-07-04T11:56:34;2.35;;;0.68;;
17330;SDS011;8783;52.448;4.638;2022-07-04T11:59:08;2.25;;;0.82;;
17330;SDS011;8783;52.448;4.638;2022-07-04T12:01:36;1.88;;;0.70;;
17330;SDS011;8783;52.448;4.638;2022-07-04T12:04:12;1.27;;;0.47;;
17330;SDS011;8783;52.448;4.638;2022-07-04T12:06:42;1.38;;;0.68;;
17330;SDS011;8783;52.448;4.638;2022-07-04T12:09:10;3.40;;;0.90;;
17330;SDS011;8783;52.448;4.638;2022-07-04T12:11:53;2.15;;;0.60;;
17330;SDS011;8783;52.448;4.638;2022-07-04T12:14:24;2.28;;;0.68;;
17330;SDS011;8783;52.448;4.638;2022-07-04T12:17:10;4.32;;;0.60;;
17330;SDS011;8783;52.448;4.638;2022-07-04T12:19:54;1.55;;;0.60;;
17330;SDS011;8783;52.448;4.638;2022-07-04T12:22:25;2.15;;;0.60;;
17330;SDS011;8783;52.448;4.638;2022-07-04T12:24:50;2.33;;;0.60;;
17330;SDS011;8783;52.448;4.638;2022-07-04T12:27:19;1.70;;;0.63;;
17330;SDS011;8783;52.448;4.638;2022-07-04T12:29:48;1.48;;;0.60;;
17330;SDS011;8783;52.448;4.638;2022-07-04T12:32:14;2.67;;;1.08;;
17330;SDS011;8783;52.448;4.638;2022-07-04T12:34:41;2.45;;;0.88;;
17330;SDS011;8783;52.448;4.638;2022-07-04T12:37:12;3.25;;;0.80;;
17330;SDS011;8783;52.448;4.638;2022-07-04T12:39:40;1.92;;;0.80;;
17330;SDS011;8783;52.448;4.638;2022-07-04T12:42:12;1.42;;;0.77;;
17330;SDS011;8783;52.448;4.638;2022-07-04T12:44:45;2.05;;;0.60;;
17330;SDS011;8783;52.448;4.638;2022-07-04T12:47:14;1.42;;;0.60;;
17330;SDS011;8783;52.448;4.638;2022-07-04T12:49:44;3.55;;;0.75;;
17330;SDS011;8783;52.448;4.638;2022-07-04T12:52:13;2.22;;;0.70;;
17330;SDS011;8783;52.448;4.638;2022-07-04T12:54:42;3.10;;;0.90;;
17330;SDS011;8783;52.448;4.638;2022-07-04T12:57:12;1.83;;;0.60;;
17330;SDS011;8783;52.448;4.638;2022-07-04T12:59:39;2.35;;;0.70;;
17330;SDS011;8783;52.448;4.638;2022-07-04T13:02:07;3.30;;;0.77;;
17330;SDS011;8783;52.448;4.638;2022-07-04T13:04:37;1.95;;;0.68;;
17330;SDS011;8783;52.448;4.638;2022-07-04T13:07:13;3.22;;;0.60;;
17330;SDS011;8783;52.448;4.638;2022-07-04T13:09:40;2.42;;;0.60;;
17330;SDS011;8783;52.448;4.638;2022-07-04T13:12:10;2.03;;;0.43;;
17330;SDS011;8783;52.448;4.638;2022-07-04T13:14:52;2.92;;;0.47;;
17330;SDS011;8783;52.448;4.638;2022-07-04T13:17:21;2.50;;;0.68;;
17330;SDS011;8783;52.448;4.638;2022-07-04T13:19:51;1.58;;;0.50;;
17330;SDS011;8783;52.448;4.638;2022-07-04T13:22:26;2.78;;;0.50;;
17330;SDS011;8783;52.448;4.638;2022-07-04T13:24:52;1.27;;;0.50;;
17330;SDS011;8783;52.448;4.638;2022-07-04T13:27:20;0.95;;;0.50;;
17330;SDS011;8783;52.448;4.638;2022-07-04T13:29:46;2.25;;;0.60;;
17330;SDS011;8783;52.448;4.638;2022-07-04T13:32:14;0.65;;;0.47;;
17330;SDS011;8783;52.448;4.638;2022-07-04T13:34:43;2.13;;;0.60;;
17330;SDS011;8783;52.448;4.638;2022-07-04T13:37:09;1.45;;;0.63;;
17330;SDS011;8783;52.448;4.638;2022-07-04T13:39:34;1.77;;;0.52;;
17330;SDS011;8783;52.448;4.638;2022-07-04T13:42:00;1.13;;;0.50;;
17330;SDS011;8783;52.448;4.638;2022-07-04T13:44:26;1.98;;;0.50;;
17330;SDS011;8783;52.448;4.638;2022-07-04T13:46:52;3.67;;;0.68;;
17330;SDS011;8783;52.448;4.638;2022-07-04T13:49:23;3.05;;;0.73;;
17330;SDS011;8783;52.448;4.638;2022-07-04T13:51:49;2.53;;;0.60;;
17330;SDS011;8783;52.448;4.638;2022-07-04T13:54:14;1.27;;;0.63;;
17330;SDS011;8783;52.448;4.638;2022-07-04T13:56:43;1.23;;;0.50;;
17330;SDS011;8783;52.448;4.638;2022-07-04T13:59:11;2.45;;;0.55;;
17330;SDS011;8783;52.448;4.638;2022-07-04T14:01:39;3.20;;;0.60;;
17330;SDS011;8783;52.448;4.638;2022-07-04T14:04:08;1.85;;;0.70;;
17330;SDS011;8783;52.448;4.638;2022-07-04T14:06:36;2.20;;;0.70;;
17330;SDS011;8783;52.448;4.638;2022-07-04T14:09:05;2.00;;;0.63;;
17330;SDS011;8783;52.448;4.638;2022-07-04T14:11:30;1.25;;;0.60;;
17330;SDS011;8783;52.448;4.638;2022-07-04T14:13:59;2.05;;;0.57;;
17330;SDS011;8783;52.448;4.638;2022-07-04T14:16:24;2.20;;;0.55;;
17330;SDS011;8783;52.448;4.638;2022-07-04T14:18:53;2.75;;;0.65;;
17330;SDS011;8783;52.448;4.638;2022-07-04T14:21:21;1.67;;;0.50;;
17330;SDS011;8783;52.448;4.638;2022-07-04T14:23:47;1.83;;;0.70;;
17330;SDS011;8783;52.448;4.638;2022-07-04T14:26:15;2.42;;;0.50;;
17330;SDS011;8783;52.448;4.638;2022-07-04T14:28:43;3.17;;;0.68;;
17330;SDS011;8783;52.448;4.638;2022-07-04T14:31:09;3.17;;;0.77;;
17330;SDS011;8783;52.448;4.638;2022-07-04T14:33:35;1.30;;;0.50;;
17330;SDS011;8783;52.448;4.638;2022-07-04T14:36:02;4.43;;;0.75;;
17330;SDS011;8783;52.448;4.638;2022-07-04T14:38:32;1.88;;;0.70;;
17330;SDS011;8783;52.448;4.638;2022-07-04T14:40:58;3.33;;;0.57;;
17330;SDS011;8783;52.448;4.638;2022-07-04T14:43:34;0.90;;;0.52;;
17330;SDS011;8783;52.448;4.638;2022-07-04T14:46:05;2.65;;;0.63;;
17330;SDS011;8783;52.448;4.638;2022-07-04T14:48:30;6.22;;;0.70;;
17330;SDS011;8783;52.448;4.638;2022-07-04T14:50:56;1.10;;;0.50;;
17330;SDS011;8783;52.448;4.638;2022-07-04T14:53:22;2.50;;;0.73;;
17330;SDS011;8783;52.448;4.638;2022-07-04T14:55:49;2.10;;;0.57;;
17330;SDS011;8783;52.448;4.638;2022-07-04T14:58:17;1.73;;;0.50;;
17330;SDS011;8783;52.448;4.638;2022-07-04T15:00:43;4.18;;;0.70;;
17330;SDS011;8783;52.448;4.638;2022-07-04T15:03:15;1.25;;;0.50;;
17330;SDS011;8783;52.448;4.638;2022-07-04T15:05:43;1.38;;;0.47;;
17330;SDS011;8783;52.448;4.638;2022-07-04T15:08:09;2.22;;;0.80;;
17330;SDS011;8783;52.448;4.638;2022-07-04T15:10:36;6.00;;;1.58;;
17330;SDS011;8783;52.448;4.638;2022-07-04T15:13:04;6.53;;;1.55;;
17330;SDS011;8783;52.448;4.638;2022-07-04T15:15:30;8.75;;;2.10;;
17330;SDS011;8783;52.448;4.638;2022-07-04T15:17:56;7.72;;;1.80;;
17330;SDS011;8783;52.448;4.638;2022-07-04T15:20:24;7.85;;;2.10;;
17330;SDS011;8783;52.448;4.638;2022-07-04T15:23:09;9.13;;;1.70;;
17330;SDS011;8783;52.448;4.638;2022-07-04T15:25:53;7.20;;;1.85;;
17330;SDS011;8783;52.448;4.638;2022-07-04T15:28:18;5.45;;;1.55;;
17330;SDS011;8783;52.448;4.638;2022-07-04T15:30:47;4.72;;;1.60;;
17330;SDS011;8783;52.448;4.638;2022-07-04T15:33:15;5.78;;;1.85;;
17330;SDS011;8783;52.448;4.638;2022-07-04T15:35:42;5.05;;;1.00;;
17330;SDS011;8783;52.448;4.638;2022-07-04T15:38:15;4.40;;;1.10;;